createdAt,value
2018-11-23T00:00:26.962Z,83.39
2018-11-23T00:02:56.619Z,84.29
2018-11-23T00:05:25.308Z,85.44
2018-11-23T00:07:54.641Z,85.27
2018-11-23T00:10:24.582Z,85.45
2018-11-23T00:12:53.546Z,86.13
2018-11-23T00:15:23.279Z,85.84
2018-11-23T00:17:51.881Z,86.16
2018-11-23T00:20:21.890Z,85.94
2018-11-23T00:22:50.513Z,85.91
2018-11-23T00:25:20.395Z,85.91
2018-11-23T00:27:49.282Z,85.66
2018-11-23T00:30:19.926Z,85.70
2018-11-23T00:32:49.048Z,85.10
2018-11-23T00:35:20.354Z,85.16
2018-11-23T00:37:49.575Z,85.19
2018-11-23T00:40:19.939Z,85.56
2018-11-23T00:42:48.815Z,86.60
2018-11-23T00:45:17.475Z,87.01
2018-11-23T00:47:46.877Z,86.62
2018-11-23T00:50:16.875Z,86.12
2018-11-23T00:52:46.415Z,87.14
2018-11-23T00:55:16.323Z,87.81
2018-11-23T00:57:44.924Z,87.69
2018-11-23T01:00:18.435Z,87.64
2018-11-23T01:02:47.173Z,88.08
2018-11-23T01:05:17.129Z,88.41
2018-11-23T01:07:46.246Z,88.49
2018-11-23T01:10:16.305Z,87.64
2018-11-23T01:12:46.061Z,88.36
2018-11-23T01:15:14.881Z,88.38
2018-11-23T01:17:43.631Z,88.37
2018-11-23T01:20:16.623Z,88.61
2018-11-23T01:22:45.567Z,87.48
2018-11-23T01:25:15.503Z,87.34
2018-11-23T01:27:45.122Z,87.57
2018-11-23T01:30:21.081Z,87.30
2018-11-23T01:32:49.783Z,87.81
2018-11-23T01:35:18.435Z,88.27
2018-11-23T01:37:47.060Z,87.64
2018-11-23T01:40:18.180Z,86.94
2018-11-23T01:42:47.251Z,87.20
2018-11-23T01:45:16.190Z,87.02
2018-11-23T01:47:44.833Z,87.27
2018-11-23T01:50:17.635Z,87.62
2018-11-23T01:52:47.347Z,86.99
2018-11-23T01:55:17.132Z,86.71
2018-11-23T01:57:46.262Z,86.85
2018-11-23T02:00:17.101Z,86.67
2018-11-23T02:02:46.359Z,86.33
2018-11-23T02:05:14.957Z,85.87
2018-11-23T02:07:43.609Z,85.67
2018-11-23T02:10:13.598Z,86.43
2018-11-23T02:12:42.288Z,85.34
2018-11-23T02:15:16.628Z,86.48
2018-11-23T02:17:45.558Z,86.21
2018-11-23T02:20:15.432Z,86.33
2018-11-23T02:22:44.117Z,86.16
2018-11-23T02:25:12.806Z,86.09
2018-11-23T02:27:41.390Z,87.10
2018-11-23T02:30:13.493Z,86.66
2018-11-23T02:32:42.275Z,86.24
2018-11-23T02:35:10.998Z,86.49
2018-11-23T02:37:39.671Z,86.46
2018-11-23T02:40:09.378Z,85.13
2018-11-23T02:42:38.341Z,85.72
2018-11-23T02:45:10.174Z,84.76
2018-11-23T02:47:39.022Z,84.19
2018-11-23T02:50:07.820Z,84.47
2018-11-23T02:52:36.842Z,83.94
2018-11-23T02:55:06.120Z,84.17
2018-11-23T02:57:34.925Z,84.39
2018-11-23T03:00:07.128Z,84.84
2018-11-23T03:02:35.813Z,84.74
2018-11-23T03:05:04.990Z,84.28
2018-11-23T03:07:33.670Z,84.82
2018-11-23T03:10:02.319Z,84.66
2018-11-23T03:12:30.980Z,84.51
2018-11-23T03:14:59.546Z,84.96
2018-11-23T03:17:28.179Z,85.37
2018-11-23T03:19:56.972Z,84.63
2018-11-23T03:22:25.632Z,84.62
2018-11-23T03:24:54.330Z,85.11
2018-11-23T03:27:22.996Z,86.15
2018-11-23T03:29:51.548Z,85.31
2018-11-23T03:32:20.182Z,85.76
2018-11-23T03:34:49.809Z,85.61
2018-11-23T03:37:18.385Z,84.51
2018-11-23T03:39:46.968Z,85.06
2018-11-23T03:42:15.646Z,85.22
2018-11-23T03:44:44.322Z,84.05
2018-11-23T03:47:12.947Z,84.57
2018-11-23T03:49:41.521Z,84.88
2018-11-23T03:52:10.268Z,85.58
2018-11-23T03:54:38.890Z,85.71
2018-11-23T03:57:07.564Z,85.06
2018-11-23T03:59:36.151Z,85.18
2018-11-23T04:02:04.894Z,85.51
2018-11-23T04:04:33.543Z,86.00
2018-11-23T04:07:02.162Z,85.89
2018-11-23T04:09:30.785Z,85.42
2018-11-23T04:11:59.493Z,86.17
2018-11-23T04:14:29.248Z,84.93
2018-11-23T04:16:57.886Z,83.97
2018-11-23T04:19:26.748Z,84.94
2018-11-23T04:21:55.403Z,85.35
2018-11-23T04:24:24.063Z,86.04
2018-11-23T04:26:52.699Z,85.11
2018-11-23T04:29:21.422Z,84.71
2018-11-23T04:31:50.479Z,85.22
2018-11-23T04:34:19.137Z,86.07
2018-11-23T04:36:47.755Z,86.19
2018-11-23T04:39:16.425Z,85.49
2018-11-23T04:41:46.440Z,84.82
2018-11-23T04:44:13.868Z,85.54
2018-11-23T04:46:42.582Z,84.30
2018-11-23T04:49:11.229Z,84.35
2018-11-23T04:51:39.869Z,83.88
2018-11-23T04:54:08.621Z,84.04
2018-11-23T04:56:37.282Z,84.25
2018-11-23T04:59:06.567Z,85.34
2018-11-23T05:01:35.513Z,84.36
2018-11-23T05:04:04.309Z,83.98
2018-11-23T05:06:32.927Z,84.05
2018-11-23T05:09:01.734Z,85.09
2018-11-23T05:11:30.532Z,84.81
2018-11-23T05:13:59.270Z,84.71
2018-11-23T05:16:27.913Z,84.68
2018-11-23T05:18:56.544Z,85.03
2018-11-23T05:21:25.209Z,85.18
2018-11-23T05:23:53.861Z,85.71
2018-11-23T05:26:22.510Z,85.48
2018-11-23T05:28:51.258Z,84.82
2018-11-23T05:31:19.887Z,84.94
2018-11-23T05:33:48.608Z,85.24
2018-11-23T05:36:17.260Z,83.97
2018-11-23T05:38:45.948Z,83.82
2018-11-23T05:41:14.637Z,84.10
2018-11-23T05:43:43.361Z,83.23
2018-11-23T05:46:12.093Z,82.92
2018-11-23T05:48:40.796Z,83.32
2018-11-23T05:51:09.498Z,83.12
2018-11-23T05:53:38.177Z,82.87
2018-11-23T05:56:07.118Z,82.85
2018-11-23T05:58:35.819Z,83.40
2018-11-23T06:01:04.498Z,83.10
2018-11-23T06:03:33.182Z,83.80
2018-11-23T06:06:01.844Z,83.59
2018-11-23T06:08:30.471Z,85.17
2018-11-23T06:10:59.112Z,84.76
2018-11-23T06:13:27.803Z,85.14
2018-11-23T06:15:56.449Z,84.44
2018-11-23T06:18:25.091Z,83.97
2018-11-23T06:20:53.685Z,84.35
2018-11-23T06:23:22.389Z,84.88
2018-11-23T06:25:56.693Z,84.11
2018-11-23T06:28:25.324Z,83.98
2018-11-23T06:30:54.010Z,83.86
2018-11-23T06:33:32.524Z,83.53
2018-11-23T06:36:01.143Z,83.92
2018-11-23T06:38:29.898Z,84.22
2018-11-23T06:40:59.408Z,84.42
2018-11-23T06:43:27.669Z,84.12
2018-11-23T06:45:57.028Z,84.57
2018-11-23T06:48:25.664Z,84.49
2018-11-23T06:50:54.673Z,83.88
2018-11-23T06:53:23.435Z,83.33
2018-11-23T06:55:52.217Z,84.48
2018-11-23T06:58:20.929Z,84.60
2018-11-23T07:00:49.604Z,84.40
2018-11-23T07:03:18.284Z,83.34
2018-11-23T07:05:47.066Z,83.20
2018-11-23T07:08:15.708Z,83.75
2018-11-23T07:10:44.311Z,84.08
2018-11-23T07:13:12.985Z,83.06
2018-11-23T07:15:41.696Z,83.52
2018-11-23T07:18:10.396Z,83.06
2018-11-23T07:20:39.065Z,82.34
2018-11-23T07:23:07.896Z,83.20
2018-11-23T07:25:36.663Z,82.57
2018-11-23T07:28:05.529Z,81.81
2018-11-23T07:30:34.147Z,81.91
2018-11-23T07:33:02.764Z,82.21
2018-11-23T07:35:31.444Z,82.45
2018-11-23T07:38:00.984Z,82.04
2018-11-23T07:40:42.478Z,82.26
2018-11-23T07:43:11.367Z,81.30
2018-11-23T07:45:40.368Z,81.20
2018-11-23T07:48:09.352Z,81.72
2018-11-23T07:50:38.267Z,81.67
2018-11-23T07:53:07.282Z,81.23
2018-11-23T07:55:36.014Z,82.38
2018-11-23T07:58:05.174Z,81.50
2018-11-23T08:00:33.928Z,81.48
2018-11-23T08:03:02.591Z,82.06
2018-11-23T08:05:31.325Z,81.44
2018-11-23T08:07:59.952Z,80.62
2018-11-23T08:10:27.725Z,80.40
2018-11-23T08:12:56.370Z,81.01
2018-11-23T08:15:26.344Z,80.15
2018-11-23T08:17:55.020Z,80.46
2018-11-23T08:20:24.661Z,80.83
2018-11-23T08:22:53.336Z,80.66
2018-11-23T08:25:23.065Z,80.60
2018-11-23T08:27:52.865Z,81.32
2018-11-23T08:30:22.935Z,80.69
2018-11-23T08:32:51.719Z,80.78
2018-11-23T08:35:20.423Z,80.92
2018-11-23T08:37:49.121Z,79.91
2018-11-23T08:40:19.971Z,80.61
2018-11-23T08:42:49.324Z,80.42
2018-11-23T08:45:19.650Z,80.69
2018-11-23T08:47:48.257Z,79.79
2018-11-23T08:50:19.582Z,80.60
2018-11-23T08:52:48.200Z,79.12
2018-11-23T08:55:17.849Z,79.51
2018-11-23T08:57:46.489Z,80.08
2018-11-23T09:00:23.163Z,79.78
2018-11-23T09:02:53.103Z,80.26
2018-11-23T09:05:21.909Z,79.92
2018-11-23T09:07:51.798Z,80.57
2018-11-23T09:10:24.306Z,79.35
2018-11-23T09:12:54.768Z,78.84
2018-11-23T09:15:23.436Z,78.97
2018-11-23T09:17:52.144Z,78.75
2018-11-23T09:20:20.926Z,79.71
2018-11-23T09:22:50.089Z,79.33
2018-11-23T09:25:20.745Z,78.68
2018-11-23T09:27:49.475Z,78.41
2018-11-23T09:30:19.986Z,78.22
2018-11-23T09:32:49.450Z,78.69
2018-11-23T09:35:18.168Z,77.95
2018-11-23T09:37:47.316Z,77.50
2018-11-23T09:40:18.267Z,77.84
2018-11-23T09:42:46.907Z,77.43
2018-11-23T09:45:17.601Z,77.39
2018-11-23T09:47:47.035Z,76.82
2018-11-23T09:50:17.305Z,76.52
2018-11-23T09:52:46.957Z,76.42
2018-11-23T09:55:15.672Z,75.63
2018-11-23T09:57:44.341Z,76.28
2018-11-23T10:00:18.995Z,75.74
2018-11-23T10:02:48.525Z,75.48
2018-11-23T10:05:17.885Z,75.94
2018-11-23T10:07:48.010Z,76.44
2018-11-23T10:10:17.493Z,75.92
2018-11-23T10:12:46.203Z,76.31
2018-11-23T10:15:16.970Z,75.06
2018-11-23T10:17:45.731Z,76.47
2018-11-23T10:20:17.618Z,75.46
2018-11-23T10:22:46.495Z,75.17
2018-11-23T10:25:16.971Z,75.77
2018-11-23T10:27:45.995Z,74.46
2018-11-23T10:30:20.922Z,73.69
2018-11-23T10:32:50.736Z,73.94
2018-11-23T10:35:19.445Z,74.81
2018-11-23T10:37:49.468Z,74.53
2018-11-23T10:40:19.650Z,74.57
2018-11-23T10:42:48.356Z,75.16
2018-11-23T10:45:20.027Z,74.36
2018-11-23T10:47:49.472Z,73.57
2018-11-23T10:50:20.608Z,73.63
2018-11-23T10:52:49.485Z,73.69
2018-11-23T10:55:20.018Z,74.09
2018-11-23T10:57:48.741Z,74.12
2018-11-23T11:00:23.346Z,72.77
2018-11-23T11:02:58.464Z,73.48
2018-11-23T11:05:32.297Z,72.93
2018-11-23T11:08:02.448Z,73.03
2018-11-23T11:10:31.128Z,73.78
2018-11-23T11:12:59.840Z,73.81
2018-11-23T11:15:28.497Z,74.24
2018-11-23T11:17:57.147Z,72.89
2018-11-23T11:20:25.776Z,72.17
2018-11-23T11:22:54.429Z,73.15
2018-11-23T11:25:23.181Z,72.62
2018-11-23T11:27:51.918Z,72.36
2018-11-23T11:30:20.976Z,72.94
2018-11-23T11:32:50.140Z,72.49
2018-11-23T11:35:18.790Z,72.93
2018-11-23T11:37:47.484Z,73.13
2018-11-23T11:40:17.682Z,72.23
2018-11-23T11:42:46.458Z,72.47
2018-11-23T11:45:16.485Z,72.82
2018-11-23T11:47:45.664Z,72.87
2018-11-23T11:50:14.729Z,72.99
2018-11-23T11:52:44.804Z,72.66
2018-11-23T11:55:16.046Z,71.62
2018-11-23T11:57:45.325Z,72.16
2018-11-23T12:00:17.871Z,72.55
2018-11-23T12:02:46.838Z,72.27
2018-11-23T12:05:15.496Z,72.56
2018-11-23T12:07:44.104Z,72.69
2018-11-23T12:10:15.564Z,72.68
2018-11-23T12:12:44.197Z,71.97
2018-11-23T12:15:13.633Z,72.33
2018-11-23T12:17:42.545Z,71.33
2018-11-23T12:20:20.070Z,71.69
2018-11-23T12:22:48.773Z,71.94
2018-11-23T12:25:17.742Z,72.00
2018-11-23T12:27:46.342Z,71.64
2018-11-23T12:30:16.759Z,72.19
2018-11-23T12:32:46.334Z,71.76
2018-11-23T12:35:15.916Z,71.46
2018-11-23T12:37:44.575Z,72.08
2018-11-23T12:40:14.636Z,71.51
2018-11-23T12:42:43.912Z,71.27
2018-11-23T12:45:19.738Z,71.10
2018-11-23T12:47:48.405Z,71.21
2018-11-23T12:50:19.090Z,71.64
2018-11-23T12:52:47.795Z,71.75
2018-11-23T12:55:16.904Z,72.27
2018-11-23T12:57:45.531Z,72.23
2018-11-23T13:00:23.405Z,71.92
2018-11-23T13:02:53.679Z,72.19
2018-11-23T13:05:23.326Z,71.71
2018-11-23T13:07:52.749Z,71.43
2018-11-23T13:10:21.926Z,71.34
2018-11-23T13:12:51.089Z,71.76
2018-11-23T13:15:19.300Z,71.49
2018-11-23T13:17:47.983Z,71.74
2018-11-23T13:20:16.960Z,71.94
2018-11-23T13:22:45.715Z,71.47
2018-11-23T13:25:16.569Z,71.54
2018-11-23T13:27:45.266Z,71.39
2018-11-23T13:30:17.481Z,71.29
2018-11-23T13:32:46.206Z,71.58
2018-11-23T13:35:16.142Z,72.07
2018-11-23T13:37:44.775Z,71.76
2018-11-23T13:40:15.438Z,71.69
2018-11-23T13:42:44.402Z,71.50
2018-11-23T13:45:14.302Z,72.11
2018-11-23T13:47:43.071Z,72.00
2018-11-23T13:50:13.659Z,72.22
2018-11-23T13:52:43.573Z,72.77
2018-11-23T13:55:12.226Z,72.90
2018-11-23T13:57:40.863Z,73.02
2018-11-23T14:00:17.527Z,73.41
2018-11-23T14:02:46.703Z,74.28
2018-11-23T14:05:21.366Z,73.96
2018-11-23T14:07:51.326Z,74.75
2018-11-23T14:10:21.394Z,74.09
2018-11-23T14:12:50.159Z,74.69
2018-11-23T14:15:20.316Z,74.56
2018-11-23T14:17:49.810Z,74.60
2018-11-23T14:20:19.229Z,74.43
2018-11-23T14:22:48.007Z,74.22
2018-11-23T14:25:19.066Z,75.07
2018-11-23T14:27:48.176Z,73.80
2018-11-23T14:30:19.442Z,73.99
2018-11-23T14:32:48.282Z,74.09
2018-11-23T14:35:18.425Z,74.41
2018-11-23T14:37:47.824Z,74.30
2018-11-23T14:40:16.536Z,74.66
2018-11-23T14:42:46.139Z,74.16
2018-11-23T14:45:18.013Z,73.59
2018-11-23T14:47:47.200Z,74.08
2018-11-23T14:50:18.189Z,74.15
2018-11-23T14:52:48.194Z,74.81
2018-11-23T14:55:17.186Z,75.04
2018-11-23T14:57:46.439Z,74.97
2018-11-23T15:00:20.921Z,75.19
2018-11-23T15:02:50.840Z,74.57
2018-11-23T15:05:20.123Z,75.05
2018-11-23T15:07:48.953Z,75.21
2018-11-23T15:10:19.089Z,75.48
2018-11-23T15:12:48.988Z,75.42
2018-11-23T15:15:19.153Z,75.55
2018-11-23T15:17:48.789Z,75.48
2018-11-23T15:20:19.471Z,75.65
2018-11-23T15:22:49.754Z,75.50
2018-11-23T15:25:18.481Z,76.19
2018-11-23T15:27:47.363Z,76.11
2018-11-23T15:30:21.725Z,76.18
2018-11-23T15:32:50.369Z,76.70
2018-11-23T15:35:19.096Z,76.26
2018-11-23T15:37:47.723Z,75.61
2018-11-23T15:40:19.124Z,75.70
2018-11-23T15:42:48.830Z,76.35
2018-11-23T15:45:20.878Z,76.47
2018-11-23T15:47:49.514Z,76.07
2018-11-23T15:50:19.670Z,75.23
2018-11-23T15:52:48.579Z,75.79
2018-11-23T15:55:19.974Z,76.13
2018-11-23T15:57:49.441Z,76.05
2018-11-23T16:00:23.561Z,75.65
2018-11-23T16:02:52.354Z,74.98
2018-11-23T16:05:21.159Z,74.89
2018-11-23T16:07:50.156Z,75.37
2018-11-23T16:10:21.117Z,74.93
2018-11-23T16:12:52.240Z,75.71
2018-11-23T16:15:21.551Z,76.26
2018-11-23T16:17:50.878Z,77.03
2018-11-23T16:20:23.339Z,76.40
2018-11-23T16:22:53.399Z,75.83
2018-11-23T16:25:22.178Z,75.31
2018-11-23T16:27:54.211Z,75.58
2018-11-23T16:30:25.337Z,75.39
2018-11-23T16:32:55.224Z,75.87
2018-11-23T16:35:26.412Z,75.56
2018-11-23T16:37:56.039Z,76.33
2018-11-23T16:40:26.794Z,75.90
2018-11-23T16:42:56.536Z,75.81
2018-11-23T16:45:27.020Z,76.15
2018-11-23T16:47:56.916Z,75.60
2018-11-23T16:50:26.384Z,75.72
2018-11-23T16:52:55.658Z,75.58
2018-11-23T16:55:25.066Z,76.40
2018-11-23T16:57:56.737Z,77.29
2018-11-23T17:00:27.213Z,77.33
2018-11-23T17:02:57.375Z,77.47
2018-11-23T17:05:28.226Z,76.82
2018-11-23T17:07:57.147Z,76.80
2018-11-23T17:10:26.181Z,77.72
2018-11-23T17:12:55.064Z,76.85
2018-11-23T17:15:25.537Z,76.37
2018-11-23T17:17:54.457Z,76.56
2018-11-23T17:20:24.653Z,76.36
2018-11-23T17:22:54.797Z,76.54
2018-11-23T17:25:24.980Z,76.08
2018-11-23T17:27:54.648Z,75.54
2018-11-23T17:30:25.803Z,75.58
2018-11-23T17:32:55.088Z,76.13
2018-11-23T17:35:24.495Z,75.21
2018-11-23T17:37:53.518Z,75.21
2018-11-23T17:40:23.849Z,75.74
2018-11-23T17:42:52.982Z,75.98
2018-11-23T17:45:24.531Z,76.27
2018-11-23T17:47:54.155Z,76.10
2018-11-23T17:50:24.281Z,76.79
2018-11-23T17:52:53.406Z,76.53
2018-11-23T17:55:22.225Z,76.25
2018-11-23T17:57:52.129Z,76.75
2018-11-23T18:00:22.435Z,76.46
2018-11-23T18:02:52.346Z,77.61
2018-11-23T18:05:22.155Z,77.49
2018-11-23T18:07:51.514Z,76.74
2018-11-23T18:10:25.588Z,77.80
2018-11-23T18:12:55.821Z,77.35
2018-11-23T18:15:25.965Z,77.36
2018-11-23T18:17:55.993Z,77.81
2018-11-23T18:20:26.159Z,78.16
2018-11-23T18:27:43.107Z,78.97
2018-11-23T18:30:15.380Z,78.69
2018-11-23T18:32:44.387Z,78.53
2018-11-23T18:35:15.020Z,78.53
2018-11-23T18:37:43.986Z,79.43
2018-11-23T18:40:13.820Z,78.83
2018-11-23T18:42:43.178Z,78.64
2018-11-23T18:45:13.696Z,77.96
2018-11-23T18:47:43.613Z,79.10
2018-11-23T18:50:15.563Z,78.34
2018-11-23T18:52:44.884Z,78.58
2018-11-23T18:55:18.341Z,78.63
2018-11-23T18:57:43.852Z,78.45
2018-11-23T19:00:16.736Z,79.07
2018-11-23T19:02:47.823Z,78.69
2018-11-23T19:05:20.812Z,78.60
2018-11-23T19:07:49.823Z,78.33
2018-11-23T19:10:18.927Z,78.16
2018-11-23T19:12:47.991Z,78.39
2018-11-23T19:15:25.296Z,78.81
2018-11-23T19:17:47.625Z,77.48
2018-11-23T19:20:22.715Z,77.66
2018-11-23T19:22:53.902Z,78.51
2018-11-23T19:25:22.858Z,78.46
2018-11-23T19:27:51.933Z,77.95
2018-11-23T19:30:28.059Z,78.87
2018-11-23T19:32:51.307Z,78.96
2018-11-23T19:35:20.504Z,79.00
2018-11-23T19:37:49.609Z,79.30
2018-11-23T19:40:18.659Z,78.68
2018-11-23T19:42:47.834Z,79.12
2018-11-23T19:45:17.680Z,79.47
2018-11-23T19:47:47.340Z,79.01
2018-11-23T19:50:19.059Z,79.12
2018-11-23T19:52:48.466Z,79.68
2018-11-23T19:55:18.293Z,78.16
2018-11-23T19:57:47.546Z,78.46
2018-11-23T20:00:20.324Z,78.61
2018-11-23T20:02:49.507Z,79.59
2018-11-23T20:05:18.453Z,79.57
2018-11-23T20:07:48.897Z,79.41
2018-11-23T20:10:21.842Z,78.77
2018-11-23T20:12:55.365Z,79.21
2018-11-23T20:15:24.546Z,79.95
2018-11-23T20:17:53.729Z,79.35
2018-11-23T20:20:24.319Z,80.26
2018-11-23T20:22:53.451Z,79.44
2018-11-23T20:25:22.612Z,79.06
2018-11-23T20:27:52.632Z,80.27
2018-11-23T20:30:21.968Z,80.38
2018-11-23T20:32:51.566Z,79.94
2018-11-23T20:35:21.519Z,79.71
2018-11-23T20:37:50.555Z,79.51
2018-11-23T20:40:21.342Z,80.18
2018-11-23T20:42:50.383Z,80.53
2018-11-23T20:45:19.690Z,80.39
2018-11-23T20:47:48.448Z,80.18
2018-11-23T20:50:18.086Z,80.84
2018-11-23T20:52:47.166Z,80.60
2018-11-23T20:55:21.066Z,80.52
2018-11-23T20:57:49.877Z,80.38
2018-11-23T21:00:20.832Z,79.82
2018-11-23T21:02:51.525Z,79.96
2018-11-23T21:05:21.114Z,80.10
2018-11-23T21:07:49.791Z,81.64
2018-11-23T21:10:20.897Z,80.91
2018-11-23T21:12:49.806Z,81.03
2018-11-23T21:15:25.704Z,81.31
2018-11-23T21:17:54.378Z,80.77
2018-11-23T21:20:23.108Z,80.26
2018-11-23T21:22:51.799Z,80.45
2018-11-23T21:25:20.450Z,80.83
2018-11-23T21:27:49.471Z,79.98
2018-11-23T21:30:19.775Z,79.81
2018-11-23T21:32:48.996Z,80.37
2018-11-23T21:35:18.078Z,80.56
2018-11-23T21:37:47.719Z,79.82
2018-11-23T21:40:17.639Z,80.27
2018-11-23T21:42:46.680Z,79.96
2018-11-23T21:45:17.488Z,80.27
2018-11-23T21:47:46.601Z,80.44
2018-11-23T21:51:44.910Z,79.82
2018-11-23T21:54:14.126Z,80.99
2018-11-23T21:56:43.457Z,80.92
2018-11-23T21:59:12.758Z,81.24
2018-11-23T22:01:41.939Z,80.55
2018-11-23T22:04:11.389Z,80.60
2018-11-23T22:06:40.737Z,80.43
2018-11-23T22:09:09.822Z,80.05
2018-11-23T22:11:39.790Z,80.50
2018-11-23T22:14:09.029Z,80.79
2018-11-23T22:16:38.121Z,81.55
2018-11-23T22:19:07.279Z,80.77
2018-11-23T22:21:36.799Z,81.81
2018-11-23T22:24:06.248Z,81.03
2018-11-23T22:26:35.318Z,81.53
2018-11-23T22:29:04.540Z,81.54
2018-11-23T22:31:33.521Z,81.73
2018-11-23T22:34:02.533Z,81.77
2018-11-23T22:36:31.544Z,82.62
2018-11-23T22:39:01.040Z,82.69
2018-11-23T22:41:30.551Z,82.15
2018-11-23T22:44:00.428Z,81.89
2018-11-23T22:46:29.968Z,82.61
2018-11-23T22:49:00.095Z,82.08
2018-11-23T22:51:29.095Z,82.64
2018-11-23T22:53:59.083Z,82.76
2018-11-23T22:56:29.141Z,82.33
2018-11-23T22:58:59.252Z,82.53
2018-11-23T23:01:29.456Z,83.25
2018-11-23T23:03:59.393Z,82.75
2018-11-23T23:06:29.095Z,83.71
2018-11-23T23:08:59.208Z,83.70
2018-11-23T23:11:28.915Z,82.98
2018-11-23T23:13:58.836Z,83.50
2018-11-23T23:16:28.394Z,83.81
2018-11-23T23:18:57.445Z,83.26
2018-11-23T23:21:26.520Z,82.82
2018-11-23T23:23:55.837Z,82.34
2018-11-23T23:26:25.283Z,82.65
2018-11-23T23:28:56.643Z,82.19
2018-11-23T23:31:25.737Z,81.93
2018-11-23T23:33:54.825Z,82.46
2018-11-23T23:36:24.044Z,81.54
2018-11-23T23:38:53.060Z,83.07
2018-11-23T23:41:22.107Z,80.71
2018-11-23T23:43:51.155Z,80.14
2018-11-23T23:46:20.557Z,80.62
2018-11-23T23:48:49.765Z,80.83
2018-11-23T23:51:18.735Z,81.06
2018-11-23T23:53:47.731Z,80.76
2018-11-23T23:56:16.835Z,80.68
2018-11-23T23:58:46.184Z,80.21
